Idar, India

4:12 AM IST on August 29, 2015 (GMT +0530)
Ahmedabad | | Change Station
CLOSE
Current Station
Airport
Location: Ahmedabad,
Elevation: 180 ft
Nearby Weather Stations

Elev 180 ft 23.08 °N, 72.63 °E | Updated 32 minutes ago

Haze
Haze
82 °F
Feels Like 88 °F
N
7
Wind Variable Wind from West

Today
High -- | Low -- °F
--% Chance of Precip.
Yesterday
High -- | Low -- °F
Precip. -- in
6:18 AM 6:59 PM
Waxing Gibbous, 99% visible
Pressure 29.65 in
Visibility 2.5 miles
Clouds
Heat Index 88 °F
Dew Point 73 °F
Humidity 74%
Rainfall 0.00 in
Snow Depth Not available.
UV Not available.
Pollen Not available.
Air Quality Not available.
Flu Activity Not available.
METAR VAAH 282210Z 27006KT 4000 HZ NSC 28/23 Q1004 NOSIG
Pressure 29.65 in
Visibility 2.5 miles
Clouds
Heat Index 88 °F
Dew Point 73 °F
Humidity 74%
Rainfall 0.00 in
Snow Depth Not available.
UV Not available.
Pollen Not available.
Air Quality Not available.
Flu Activity Not available.
METAR VAAH 282210Z 27006KT 4000 HZ NSC 28/23 Q1004 NOSIG

10-Day Weather Forecast

×

Almanac

Astronomy

Aug. 29, 2015 Rise Set
Actual Time
Civil Twilight
Nautical Twilight
Astronomical Twilight
Moon
Length of Visible Light
Length of Day
Tomorrow will be .
, % of the Moon is Illuminated

Today's Extremes

Country Highs Country Lows

Community

WunderPhotos

Upload Photos

1,850,516 photos uploaded!

WunderBlogs® & News

Nearby

Air Quality

  Air Quality AQ Index Pollutant
Not available.

Snow Depth

Station Depth Elevation

Earthquake Activity

City Distance Mag. Time & Date
Minimum magnitude displayed is 2.5.

Coastal Water Temperatures

Place Temperature

Stations

Nearby Weather Stations

Station Location Temp. Windchill Dew Point Humidity Wind Precip. Elev Updated Type